createdAt,value
2022-12-20T00:01:23.614Z,23.03
2022-12-20T00:04:26.571Z,22.67
2022-12-20T00:07:29.460Z,21.47
2022-12-20T00:10:32.614Z,23.00
2022-12-20T00:13:36.991Z,22.37
2022-12-20T00:16:40.061Z,24.37
2022-12-20T00:19:45.018Z,21.53
2022-12-20T00:22:48.322Z,22.17
2022-12-20T00:25:51.222Z,21.80
2022-12-20T00:28:56.685Z,23.47
2022-12-20T00:31:59.624Z,22.47
2022-12-20T00:35:02.533Z,22.97
2022-12-20T00:38:05.423Z,23.33
2022-12-20T00:41:10.861Z,22.23
2022-12-20T00:44:15.084Z,21.83
2022-12-20T00:47:18.079Z,21.57
2022-12-20T00:50:21.093Z,21.03
2022-12-20T00:53:26.557Z,22.20
2022-12-20T00:56:29.987Z,20.90
2022-12-20T00:59:34.308Z,20.83
2022-12-20T01:02:37.419Z,21.13
2022-12-20T01:05:40.880Z,20.80
2022-12-20T01:08:44.287Z,21.80
2022-12-20T01:11:47.222Z,21.63
2022-12-20T01:14:51.508Z,20.43
2022-12-20T01:17:54.419Z,21.23
2022-12-20T01:21:02.863Z,21.27
2022-12-20T01:24:06.182Z,19.13
2022-12-20T01:27:09.059Z,21.57
2022-12-20T01:30:14.166Z,21.53
2022-12-20T01:33:17.047Z,19.10
2022-12-20T01:36:22.022Z,19.90
2022-12-20T01:39:24.929Z,20.93
2022-12-20T01:42:28.039Z,20.17
2022-12-20T01:45:32.556Z,18.57
2022-12-20T01:48:35.535Z,19.53
2022-12-20T01:51:44.646Z,19.33
2022-12-20T01:54:53.307Z,19.67
2022-12-20T01:58:00.682Z,20.13
2022-12-20T02:01:05.031Z,21.17
2022-12-20T02:04:08.068Z,18.43
2022-12-20T02:07:22.592Z,19.33
2022-12-20T02:10:31.023Z,19.30
2022-12-20T02:13:52.607Z,18.47
2022-12-20T02:17:07.223Z,18.57
2022-12-20T02:20:40.122Z,17.47
2022-12-20T02:24:10.285Z,18.70
2022-12-20T02:27:43.830Z,19.33
2022-12-20T02:30:50.786Z,20.20
2022-12-20T02:33:56.187Z,18.80
2022-12-20T02:36:59.053Z,19.67
2022-12-20T02:40:03.122Z,19.97
2022-12-20T02:43:28.650Z,19.93
2022-12-20T02:46:33.438Z,20.50
2022-12-20T02:49:41.247Z,20.37
2022-12-20T02:52:44.644Z,20.87
2022-12-20T02:55:52.162Z,21.43
2022-12-20T02:58:59.697Z,21.17
2022-12-20T03:02:05.137Z,23.27
2022-12-20T03:05:08.699Z,22.33
2022-12-20T03:08:11.803Z,24.13
2022-12-20T03:11:15.089Z,22.43
2022-12-20T03:14:17.988Z,22.27
2022-12-20T03:17:22.248Z,23.87
2022-12-20T03:20:25.302Z,22.73
2022-12-20T03:23:28.247Z,22.67
2022-12-20T03:26:31.122Z,21.37
2022-12-20T03:29:34.036Z,22.27
2022-12-20T03:32:38.416Z,21.97
2022-12-20T03:35:41.628Z,23.17
2022-12-20T03:38:44.557Z,21.97
2022-12-20T03:41:47.686Z,20.67
2022-12-20T03:44:50.886Z,20.97
2022-12-20T03:47:55.138Z,20.57
2022-12-20T03:50:58.047Z,20.47
2022-12-20T03:54:00.968Z,19.30
2022-12-20T03:57:03.886Z,19.57
2022-12-20T04:00:08.140Z,20.07
2022-12-20T04:03:12.600Z,17.83
2022-12-20T04:06:15.717Z,19.97
2022-12-20T04:09:18.626Z,18.03
2022-12-20T04:12:21.519Z,18.10
2022-12-20T04:15:24.464Z,17.17
2022-12-20T04:18:30.112Z,13.67
2022-12-20T04:21:34.822Z,15.77
2022-12-20T04:24:38.291Z,13.33
2022-12-20T04:27:41.174Z,14.93
2022-12-20T04:30:44.146Z,14.40
2022-12-20T04:33:49.199Z,13.50
2022-12-20T04:36:52.114Z,12.07
2022-12-20T04:39:55.524Z,14.20
2022-12-20T04:42:58.452Z,13.40
2022-12-20T04:46:01.433Z,12.80
2022-12-20T04:49:05.886Z,11.53
2022-12-20T04:52:22.702Z,11.63
2022-12-20T04:55:25.614Z,11.77
2022-12-20T04:58:28.587Z,9.53
2022-12-20T05:01:31.552Z,10.87
2022-12-20T05:04:37.758Z,10.70
2022-12-20T05:07:41.113Z,9.33
2022-12-20T05:10:44.048Z,10.33
2022-12-20T05:13:46.951Z,9.70
2022-12-20T05:16:49.863Z,10.07
2022-12-20T05:19:54.108Z,9.90
2022-12-20T05:23:14.656Z,9.70
2022-12-20T05:26:20.553Z,10.63
2022-12-20T05:29:23.461Z,9.27
2022-12-20T05:32:26.373Z,9.20
2022-12-20T05:35:30.736Z,8.67
2022-12-20T05:38:33.739Z,9.80
2022-12-20T05:41:36.632Z,9.80
2022-12-20T05:44:39.509Z,9.13
2022-12-20T05:47:42.391Z,9.27
2022-12-20T05:50:47.394Z,8.23
2022-12-20T05:53:50.705Z,7.97
2022-12-20T05:56:53.652Z,6.93
2022-12-20T05:59:56.525Z,6.37
2022-12-20T06:02:59.635Z,5.67
2022-12-20T06:06:08.651Z,4.67
2022-12-20T06:09:14.899Z,4.17
2022-12-20T06:12:17.924Z,5.27
2022-12-20T06:15:20.948Z,4.67
2022-12-20T06:18:23.911Z,4.83
2022-12-20T06:21:28.498Z,4.80
2022-12-20T06:24:31.431Z,5.07
2022-12-20T06:27:34.349Z,4.70
2022-12-20T06:30:37.302Z,5.20
2022-12-20T06:33:40.199Z,4.13
2022-12-20T06:36:44.572Z,3.93
2022-12-20T06:39:47.483Z,4.33
2022-12-20T06:42:50.938Z,4.63
2022-12-20T06:45:53.938Z,4.97
2022-12-20T06:48:57.522Z,5.20
2022-12-20T06:52:01.806Z,5.07
2022-12-20T06:55:05.204Z,5.97
2022-12-20T06:58:08.126Z,5.37
2022-12-20T07:01:11.081Z,6.10
2022-12-20T07:04:14.040Z,5.63
2022-12-20T07:07:18.303Z,5.50
2022-12-20T07:10:21.233Z,6.10
2022-12-20T07:13:24.320Z,5.13
2022-12-20T07:16:29.021Z,5.63
2022-12-20T07:19:31.998Z,6.43
2022-12-20T07:22:37.250Z,7.30
2022-12-20T07:25:40.165Z,6.77
2022-12-20T07:28:44.760Z,7.00
2022-12-20T07:31:47.717Z,7.37
2022-12-20T07:34:50.695Z,6.77
2022-12-20T07:37:54.945Z,6.30
2022-12-20T07:40:57.979Z,6.17
2022-12-20T07:44:01.086Z,7.70
2022-12-20T07:47:04.071Z,6.23
2022-12-20T07:50:08.521Z,7.27
2022-12-20T07:53:13.205Z,7.00
2022-12-20T07:56:17.542Z,6.60
2022-12-20T07:59:25.363Z,7.40
2022-12-20T08:02:33.646Z,6.93
2022-12-20T08:05:41.016Z,7.60
2022-12-20T08:08:51.991Z,7.90
2022-12-20T08:11:55.505Z,8.33
2022-12-20T08:14:59.538Z,9.37
2022-12-20T08:18:02.473Z,8.90
2022-12-20T08:21:05.673Z,9.03
2022-12-20T08:24:10.233Z,10.40
2022-12-20T08:27:13.339Z,11.23
2022-12-20T08:30:16.669Z,13.20
2022-12-20T08:33:20.697Z,13.17
2022-12-20T08:36:23.654Z,12.47
2022-12-20T08:39:27.896Z,14.13
2022-12-20T08:42:31.096Z,13.83
2022-12-20T08:45:34.006Z,16.37
2022-12-20T08:48:37.253Z,14.60
2022-12-20T08:51:40.223Z,14.30
2022-12-20T08:54:44.562Z,13.33
2022-12-20T08:57:47.449Z,14.83
2022-12-20T09:00:50.335Z,16.07
2022-12-20T09:03:53.737Z,14.80
2022-12-20T09:06:56.732Z,16.77
2022-12-20T09:10:01.035Z,14.97
2022-12-20T09:13:03.982Z,18.87
2022-12-20T09:16:08.670Z,19.57
2022-12-20T09:19:14.080Z,19.97
2022-12-20T09:22:17.157Z,20.53
2022-12-20T09:25:21.839Z,20.30
2022-12-20T09:28:25.216Z,21.30
2022-12-20T09:31:28.604Z,18.97
2022-12-20T09:34:31.545Z,19.40
2022-12-20T09:37:34.651Z,21.00
2022-12-20T09:40:39.084Z,20.77
2022-12-20T09:43:42.191Z,19.67
2022-12-20T09:46:47.119Z,19.93
2022-12-20T09:49:52.571Z,20.20
2022-12-20T09:53:06.994Z,21.30
2022-12-20T09:56:16.834Z,19.27
2022-12-20T09:59:21.588Z,18.70
2022-12-20T10:05:55.148Z,18.97
2022-12-20T10:09:00.803Z,19.67
2022-12-20T10:12:20.345Z,18.03
2022-12-20T10:15:28.519Z,15.93
2022-12-20T10:18:49.326Z,17.27
2022-12-20T10:21:57.780Z,19.40
2022-12-20T10:25:08.507Z,19.10
2022-12-20T10:28:16.794Z,18.30
2022-12-20T10:31:20.347Z,19.13
2022-12-20T10:34:24.412Z,20.07
2022-12-20T10:37:27.273Z,18.77
2022-12-20T10:41:01.433Z,18.53
2022-12-20T10:44:01.181Z,18.10
2022-12-20T10:47:04.261Z,17.17
2022-12-20T10:50:16.818Z,17.10
2022-12-20T10:53:25.499Z,18.00
2022-12-20T10:56:31.217Z,17.30
2022-12-20T10:59:39.028Z,18.03
2022-12-20T11:02:43.977Z,18.27
2022-12-20T11:05:59.613Z,18.57
2022-12-20T11:09:26.405Z,19.97
2022-12-20T11:12:29.570Z,20.93
2022-12-20T11:15:35.974Z,20.63
2022-12-20T11:18:49.240Z,19.90
2022-12-20T11:22:00.594Z,21.50
2022-12-20T11:25:18.932Z,19.70
2022-12-20T11:28:35.318Z,20.17
2022-12-20T11:31:51.182Z,21.23
2022-12-20T11:35:05.008Z,19.23
2022-12-20T11:38:16.083Z,20.93
2022-12-20T11:41:27.207Z,23.40
2022-12-20T11:44:48.535Z,22.30
2022-12-20T11:48:15.994Z,22.93
2022-12-20T11:51:26.686Z,22.63
2022-12-20T11:54:33.948Z,21.53
2022-12-20T11:58:09.552Z,21.53
2022-12-20T12:01:12.904Z,19.73
2022-12-20T12:04:22.586Z,19.63
2022-12-20T12:07:29.805Z,18.60
2022-12-20T12:10:37.658Z,19.77
2022-12-20T12:13:43.465Z,19.33
2022-12-20T12:16:52.430Z,18.80
2022-12-20T12:20:11.372Z,18.63
2022-12-20T12:23:20.140Z,21.57
2022-12-20T12:26:27.086Z,20.03
2022-12-20T12:29:31.590Z,18.87
2022-12-20T12:32:44.005Z,18.37
2022-12-20T12:36:07.851Z,17.60
2022-12-20T12:39:37.213Z,18.97
2022-12-20T12:43:09.478Z,18.00
2022-12-20T12:46:16.349Z,18.70
2022-12-20T12:49:22.522Z,18.67
2022-12-20T12:52:44.602Z,17.53
2022-12-20T12:55:50.481Z,19.17
2022-12-20T12:59:22.504Z,19.07
2022-12-20T13:02:51.874Z,19.50
2022-12-20T13:05:54.819Z,18.80
2022-12-20T13:09:20.820Z,18.93
2022-12-20T13:12:58.776Z,18.73
2022-12-20T13:16:13.620Z,19.60
2022-12-20T13:19:17.726Z,18.47
2022-12-20T13:22:22.909Z,21.07
2022-12-20T13:25:31.781Z,19.37
2022-12-20T13:28:47.291Z,18.33
2022-12-20T13:31:54.392Z,20.57
2022-12-20T13:34:58.264Z,18.97
2022-12-20T13:38:04.731Z,19.50
2022-12-20T13:41:19.160Z,20.03
2022-12-20T13:44:43.584Z,19.50
2022-12-20T13:47:51.034Z,19.80
2022-12-20T13:50:55.389Z,19.43
2022-12-20T13:54:00.248Z,19.37
2022-12-20T13:57:08.443Z,20.63
2022-12-20T14:00:18.331Z,18.53
2022-12-20T14:03:24.187Z,18.70
2022-12-20T14:06:28.481Z,19.13
2022-12-20T14:09:34.605Z,18.17
2022-12-20T14:12:46.544Z,19.43
2022-12-20T14:15:50.195Z,19.87
2022-12-20T14:19:02.218Z,19.40
2022-12-20T14:22:05.175Z,20.13
2022-12-20T14:25:10.183Z,20.73
2022-12-20T14:28:27.289Z,20.03
2022-12-20T14:31:38.556Z,19.57
2022-12-20T14:34:44.489Z,18.50
2022-12-20T14:37:55.002Z,19.67
2022-12-20T14:40:58.117Z,19.90
2022-12-20T14:44:05.294Z,20.50
2022-12-20T14:47:16.850Z,18.57
2022-12-20T14:50:23.033Z,19.43
2022-12-20T14:53:28.897Z,19.90
2022-12-20T14:56:33.503Z,19.00
2022-12-20T14:59:37.862Z,18.40
2022-12-20T15:02:43.412Z,19.50
2022-12-20T15:05:49.053Z,20.10
2022-12-20T15:08:51.915Z,20.17
2022-12-20T15:11:55.703Z,20.83
2022-12-20T15:15:17.750Z,21.63
2022-12-20T15:18:23.145Z,22.63
2022-12-20T15:21:30.805Z,23.30
2022-12-20T15:24:34.134Z,21.07
2022-12-20T15:27:36.955Z,23.63
2022-12-20T15:30:41.249Z,23.63
2022-12-20T15:33:45.001Z,21.37
2022-12-20T15:36:48.001Z,23.37
2022-12-20T15:39:50.835Z,27.50
2022-12-20T15:42:53.692Z,25.67
2022-12-20T15:45:57.879Z,27.17
2022-12-20T15:49:00.795Z,27.03
2022-12-20T15:52:03.697Z,26.40
2022-12-20T15:55:07.869Z,27.67
2022-12-20T15:58:11.217Z,25.17
2022-12-20T16:01:18.614Z,26.50
2022-12-20T16:04:22.733Z,26.47
2022-12-20T16:07:26.071Z,25.13
2022-12-20T16:10:28.984Z,25.50
2022-12-20T16:13:31.811Z,25.53
2022-12-20T16:16:37.990Z,25.20
2022-12-20T16:19:40.922Z,26.10
2022-12-20T16:22:43.722Z,24.90
2022-12-20T16:25:47.499Z,24.33
2022-12-20T16:28:51.394Z,23.80
2022-12-20T16:31:55.664Z,22.70
2022-12-20T16:34:58.585Z,23.43
2022-12-20T16:38:01.804Z,21.33
2022-12-20T16:41:13.796Z,22.33
2022-12-20T16:44:19.337Z,24.17
2022-12-20T16:47:23.504Z,25.33
2022-12-20T16:50:28.688Z,26.07
2022-12-20T16:53:48.177Z,24.23
2022-12-20T16:56:56.057Z,24.67
2022-12-20T16:59:58.949Z,26.10
2022-12-20T17:03:03.214Z,25.40
2022-12-20T17:06:06.584Z,26.20
2022-12-20T17:12:30.171Z,27.83
2022-12-20T17:15:33.020Z,26.87
2022-12-20T17:18:37.508Z,28.10
2022-12-20T17:25:04.368Z,32.53
2022-12-20T17:28:07.240Z,30.53
2022-12-20T17:31:27.691Z,29.53
2022-12-20T17:34:32.344Z,30.57
2022-12-20T17:37:35.260Z,31.83
2022-12-20T17:40:38.324Z,35.50
2022-12-20T17:43:41.137Z,33.27
2022-12-20T17:46:44.052Z,34.17
2022-12-20T17:49:48.258Z,34.70
2022-12-20T17:52:51.834Z,35.13
2022-12-20T17:55:55.161Z,34.40
2022-12-20T17:58:59.064Z,34.13
2022-12-20T18:02:02.010Z,35.63
2022-12-20T18:05:08.094Z,33.60
2022-12-20T18:08:10.903Z,36.73
2022-12-20T18:11:13.738Z,38.40
2022-12-20T18:14:17.166Z,37.30
2022-12-20T18:17:20.115Z,37.17
2022-12-20T18:20:24.269Z,39.03
2022-12-20T18:23:27.107Z,39.63
2022-12-20T18:26:32.063Z,39.60
2022-12-20T18:29:34.862Z,38.80
2022-12-20T18:32:37.701Z,38.00
2022-12-20T18:35:41.869Z,37.17
2022-12-20T18:38:46.585Z,40.63
2022-12-20T18:41:49.437Z,44.07
2022-12-20T18:44:52.390Z,46.60
2022-12-20T18:47:55.579Z,43.53
2022-12-20T18:51:04.211Z,41.67
2022-12-20T18:54:08.565Z,43.17
2022-12-20T18:57:11.497Z,42.97
2022-12-20T19:00:15.663Z,39.60
2022-12-20T19:03:18.942Z,41.30
2022-12-20T19:06:24.296Z,40.70
2022-12-20T19:09:27.106Z,40.03
2022-12-20T19:12:30.019Z,40.37
2022-12-20T19:15:32.854Z,41.50
2022-12-20T19:18:36.069Z,39.50
2022-12-20T19:21:42.660Z,41.00
2022-12-20T19:24:45.453Z,40.97
2022-12-20T19:27:48.797Z,40.93
2022-12-20T19:30:51.725Z,40.23
2022-12-20T19:33:56.506Z,41.40
2022-12-20T19:37:00.690Z,43.10
2022-12-20T19:40:03.544Z,44.73
2022-12-20T19:43:06.365Z,43.50
2022-12-20T19:46:09.738Z,44.87
2022-12-20T19:49:13.583Z,42.40
2022-12-20T19:52:21.977Z,41.90
2022-12-20T19:55:28.098Z,43.73
2022-12-20T19:58:30.978Z,45.97
2022-12-20T20:01:33.923Z,43.93
2022-12-20T20:04:36.789Z,43.47
2022-12-20T20:07:40.945Z,41.30
2022-12-20T20:10:44.705Z,40.20
2022-12-20T20:13:47.705Z,41.77
2022-12-20T20:16:50.824Z,43.00
2022-12-20T20:19:53.654Z,42.27
2022-12-20T20:22:57.804Z,45.63
2022-12-20T20:26:00.921Z,46.57
2022-12-20T20:29:05.167Z,43.93
2022-12-20T20:32:08.537Z,46.37
2022-12-20T20:35:11.396Z,44.67
2022-12-20T20:38:15.592Z,46.07
2022-12-20T20:41:18.942Z,45.93
2022-12-20T20:44:21.732Z,46.47
2022-12-20T20:47:24.554Z,48.00
2022-12-20T20:50:27.429Z,45.50
2022-12-20T20:53:34.263Z,47.30
2022-12-20T20:56:37.278Z,46.23
2022-12-20T20:59:40.120Z,45.17
2022-12-20T21:02:43.130Z,44.13
2022-12-20T21:06:32.868Z,43.30
2022-12-20T21:09:11.453Z,44.03
2022-12-20T21:12:15.527Z,46.20
2022-12-20T21:15:23.563Z,46.70
2022-12-20T21:18:26.866Z,44.83
2022-12-20T21:21:29.928Z,44.00
2022-12-20T21:24:34.296Z,46.10
2022-12-20T21:27:37.123Z,43.37
2022-12-20T21:30:39.932Z,46.57
2022-12-20T21:33:42.806Z,41.97
2022-12-20T21:36:45.632Z,42.93
2022-12-20T21:39:49.905Z,41.43
2022-12-20T21:42:52.700Z,39.10
2022-12-20T21:45:56.049Z,39.07
2022-12-20T21:48:59.659Z,37.93
2022-12-20T21:52:02.512Z,37.37
2022-12-20T21:55:07.196Z,37.20
2022-12-20T21:58:09.998Z,37.63
2022-12-20T22:01:15.504Z,38.33
2022-12-20T22:04:18.960Z,36.30
2022-12-20T22:07:21.793Z,34.43
2022-12-20T22:10:26.010Z,34.57
2022-12-20T22:13:28.875Z,33.40
2022-12-20T22:16:32.211Z,34.47
2022-12-20T22:19:36.162Z,34.23
2022-12-20T22:22:38.972Z,34.80
2022-12-20T22:25:44.047Z,30.87
2022-12-20T22:28:48.899Z,32.33
2022-12-20T22:31:52.552Z,31.87
2022-12-20T22:34:55.460Z,33.90
2022-12-20T22:37:58.275Z,33.73
2022-12-20T22:41:09.564Z,34.70
2022-12-20T22:44:12.617Z,33.10
2022-12-20T22:47:15.486Z,32.50
2022-12-20T22:50:18.447Z,34.30
2022-12-20T22:53:21.223Z,33.87
2022-12-20T22:56:25.436Z,32.63
2022-12-20T22:59:28.302Z,33.50
2022-12-20T23:02:31.238Z,35.63
2022-12-20T23:05:34.093Z,34.87
2022-12-20T23:08:38.142Z,35.23
2022-12-20T23:11:58.878Z,33.70
2022-12-20T23:15:21.410Z,40.23
2022-12-20T23:18:24.249Z,40.20
2022-12-20T23:21:45.896Z,39.07
2022-12-20T23:24:48.748Z,35.13
2022-12-20T23:27:53.121Z,37.50
2022-12-20T23:30:55.962Z,38.23
2022-12-20T23:33:58.908Z,36.83
2022-12-20T23:37:01.733Z,39.73
2022-12-20T23:40:05.685Z,39.23
2022-12-20T23:43:10.974Z,38.23
2022-12-20T23:46:15.437Z,35.53
2022-12-20T23:49:18.445Z,36.27
2022-12-20T23:52:21.268Z,35.07
2022-12-20T23:55:24.084Z,37.67
2022-12-20T23:58:28.728Z,36.57
